METAR UND TAF INFORMATION
METAR FOR EDLW
ADDS - METARS form results

(1146 UTC 19 December 2018)
Data provider http://aviationweather.gov/metar/data/
 
METAR text: EDLW 191120Z 20012KT 9999 SCT031 09/05 Q1012
Conditions at: EDLW (DORTMUND/WICKEDE, DE) observed 1120 UTC 19 December 2018
Temperature: 9.0°C (48°F)
Dewpoint: 5.0°C (41°F) [RH = 76%]
Pressure (altimeter): 29.88 inches Hg (1012.0 mb)
Winds: from the SSW (200 degrees) at 14 MPH (12 knots; 6.2 m/s)
Visibility: 6 or more miles (10+ km)
Ceiling: at least 12,000 feet AGL
Clouds: scattered clouds at 3100 feet AGL
Weather: no significant weather observed at this time

METAR text: EDLW 191050Z 20010KT 9999 SCT028 BKN032 08/05 Q1012
Conditions at: EDLW (DORTMUND/WICKEDE, DE) observed 1050 UTC 19 December 2018
Temperature: 8.0°C (46°F)
Dewpoint: 5.0°C (41°F) [RH = 81%]
Pressure (altimeter): 29.88 inches Hg (1012.0 mb)
Winds: from the SSW (200 degrees) at 12 MPH (10 knots; 5.1 m/s)
Visibility: 6 or more miles (10+ km)
Ceiling: 3200 feet AGL
Clouds: scattered clouds at 2800 feet AGL
broken clouds at 3200 feet AGL
Weather: no significant weather observed at this time

Forecast for: EDLW (DORTMUND/WICKEDE, DE)
Text: TAF EDLW 191100Z 1912/2012 19009KT 9999 BKN030
Forecast period: 1200 UTC 19 December 2018 to 1200 UTC 20 December 2018
Forecast type: FROM: standard forecast or significant change
Winds: from the S (190 degrees) at 10 MPH (9 knots; 4.6 m/s)
Visibility: 6 or more miles 10+ km)
Ceiling: 3000 feet AGL
Clouds: broken clouds at 3000 feet AGL
Weather: no significant weather forecast for this period

 FLUGHAFENKARTE

 RUNWAY INFORMATION
Runway 06 Runway length 6562 ft Runway width 148 ft
Runway elevation 418 ft Runway displaced threshold 984 ft Runway heading 61
Runway 24 Runway length 6562 ft Runway width 148 ft
Runway elevation 401 ft Runway displaced threshold 984 ft Runway heading 241

 AIRPORT FREQUENCIES
Type AFIS Name LANGEN INF Frequency 129.875 MHZ
Type APP Name LANGEN RAD Frequency 125.225 MHZ
Type ATIS Name ATIS Frequency 125.125 MHZ
Type GND Name GND Frequency 121.825 MHZ
Type TWR Name TWR Frequency 134.175 MHZ

 AIRPORT NEAR NAVIGATION AIDS
Type VOR-DME Name Dortmund Frequency 112700 KHZ
Type VOR-DME Name Wickede Frequency 108650 KHZ
Type NDB Name Dortmund Frequency 357 KHZ



WIKA Airline 2017 Version 3.3 powered by VAM